sensor_id;sensor_type;location;lat;lon;timestamp;P1;durP1;ratioP1;P2;durP2;ratioP2
10801;SDS011;5453;50.852;7.102;2023-04-24T00:00:27;0.93;;;0.77;;
10801;SDS011;5453;50.852;7.102;2023-04-24T00:02:59;0.82;;;0.70;;
10801;SDS011;5453;50.852;7.102;2023-04-24T00:05:31;1.83;;;0.73;;
10801;SDS011;5453;50.852;7.102;2023-04-24T00:08:05;0.73;;;0.70;;
10801;SDS011;5453;50.852;7.102;2023-04-24T00:10:37;1.60;;;0.60;;
10801;SDS011;5453;50.852;7.102;2023-04-24T00:13:09;0.80;;;0.80;;
10801;SDS011;5453;50.852;7.102;2023-04-24T00:15:41;1.08;;;0.90;;
10801;SDS011;5453;50.852;7.102;2023-04-24T00:18:14;0.70;;;0.70;;
10801;SDS011;5453;50.852;7.102;2023-04-24T00:20:46;0.68;;;0.68;;
10801;SDS011;5453;50.852;7.102;2023-04-24T00:23:19;0.73;;;0.73;;
10801;SDS011;5453;50.852;7.102;2023-04-24T00:25:51;0.70;;;0.70;;
10801;SDS011;5453;50.852;7.102;2023-04-24T00:28:23;1.15;;;0.68;;
10801;SDS011;5453;50.852;7.102;2023-04-24T00:30:55;0.47;;;0.35;;
10801;SDS011;5453;50.852;7.102;2023-04-24T00:33:27;1.02;;;0.93;;
10801;SDS011;5453;50.852;7.102;2023-04-24T00:35:59;0.70;;;0.70;;
10801;SDS011;5453;50.852;7.102;2023-04-24T00:38:33;0.90;;;0.90;;
10801;SDS011;5453;50.852;7.102;2023-04-24T00:41:05;0.80;;;0.80;;
10801;SDS011;5453;50.852;7.102;2023-04-24T00:43:37;0.70;;;0.70;;
10801;SDS011;5453;50.852;7.102;2023-04-24T00:46:10;1.17;;;0.90;;
10801;SDS011;5453;50.852;7.102;2023-04-24T00:48:43;0.75;;;0.75;;
10801;SDS011;5453;50.852;7.102;2023-04-24T00:51:15;0.73;;;0.70;;
10801;SDS011;5453;50.852;7.102;2023-04-24T00:53:49;0.75;;;0.70;;
10801;SDS011;5453;50.852;7.102;2023-04-24T00:56:22;0.77;;;0.77;;
10801;SDS011;5453;50.852;7.102;2023-04-24T00:58:54;2.67;;;0.90;;
10801;SDS011;5453;50.852;7.102;2023-04-24T01:01:27;0.93;;;0.80;;
10801;SDS011;5453;50.852;7.102;2023-04-24T01:04:00;0.95;;;0.73;;
10801;SDS011;5453;50.852;7.102;2023-04-24T01:06:33;0.90;;;0.60;;
10801;SDS011;5453;50.852;7.102;2023-04-24T01:09:07;0.70;;;0.68;;
10801;SDS011;5453;50.852;7.102;2023-04-24T01:11:40;2.05;;;0.80;;
10801;SDS011;5453;50.852;7.102;2023-04-24T01:14:15;0.73;;;0.73;;
10801;SDS011;5453;50.852;7.102;2023-04-24T01:16:47;1.13;;;0.70;;
10801;SDS011;5453;50.852;7.102;2023-04-24T01:19:19;0.85;;;0.85;;
10801;SDS011;5453;50.852;7.102;2023-04-24T01:21:53;0.93;;;0.93;;
10801;SDS011;5453;50.852;7.102;2023-04-24T01:24:31;0.52;;;0.52;;
10801;SDS011;5453;50.852;7.102;2023-04-24T01:27:03;0.68;;;0.68;;
10801;SDS011;5453;50.852;7.102;2023-04-24T01:29:36;0.93;;;0.80;;
10801;SDS011;5453;50.852;7.102;2023-04-24T01:32:08;1.30;;;1.00;;
10801;SDS011;5453;50.852;7.102;2023-04-24T01:34:40;1.10;;;1.00;;
10801;SDS011;5453;50.852;7.102;2023-04-24T01:37:13;0.82;;;0.82;;
10801;SDS011;5453;50.852;7.102;2023-04-24T01:39:47;1.10;;;1.00;;
10801;SDS011;5453;50.852;7.102;2023-04-24T01:42:19;1.65;;;0.90;;
10801;SDS011;5453;50.852;7.102;2023-04-24T01:44:51;1.13;;;0.95;;
10801;SDS011;5453;50.852;7.102;2023-04-24T01:47:24;1.00;;;1.00;;
10801;SDS011;5453;50.852;7.102;2023-04-24T01:49:56;0.90;;;0.90;;
10801;SDS011;5453;50.852;7.102;2023-04-24T01:52:28;1.05;;;1.02;;
10801;SDS011;5453;50.852;7.102;2023-04-24T01:55:05;1.10;;;1.00;;
10801;SDS011;5453;50.852;7.102;2023-04-24T01:57:38;1.15;;;0.73;;
10801;SDS011;5453;50.852;7.102;2023-04-24T02:00:11;1.85;;;1.05;;
10801;SDS011;5453;50.852;7.102;2023-04-24T02:02:44;1.45;;;1.13;;
10801;SDS011;5453;50.852;7.102;2023-04-24T02:05:17;0.93;;;0.93;;
10801;SDS011;5453;50.852;7.102;2023-04-24T02:07:49;1.20;;;1.08;;
10801;SDS011;5453;50.852;7.102;2023-04-24T02:10:22;1.20;;;1.10;;
10801;SDS011;5453;50.852;7.102;2023-04-24T02:12:55;1.20;;;1.10;;
10801;SDS011;5453;50.852;7.102;2023-04-24T02:15:28;1.40;;;1.30;;
10801;SDS011;5453;50.852;7.102;2023-04-24T02:18:00;1.55;;;1.10;;
10801;SDS011;5453;50.852;7.102;2023-04-24T02:20:35;1.70;;;1.25;;
10801;SDS011;5453;50.852;7.102;2023-04-24T02:23:07;2.28;;;1.63;;
10801;SDS011;5453;50.852;7.102;2023-04-24T02:25:41;1.20;;;1.10;;
10801;SDS011;5453;50.852;7.102;2023-04-24T02:28:13;1.60;;;1.40;;
10801;SDS011;5453;50.852;7.102;2023-04-24T02:30:45;2.25;;;1.50;;
10801;SDS011;5453;50.852;7.102;2023-04-24T02:33:17;1.67;;;1.50;;
10801;SDS011;5453;50.852;7.102;2023-04-24T02:35:50;3.00;;;1.50;;
10801;SDS011;5453;50.852;7.102;2023-04-24T02:38:22;2.17;;;1.70;;
10801;SDS011;5453;50.852;7.102;2023-04-24T02:40:55;2.40;;;1.42;;
10801;SDS011;5453;50.852;7.102;2023-04-24T02:43:27;2.53;;;1.73;;
10801;SDS011;5453;50.852;7.102;2023-04-24T02:45:59;3.25;;;2.10;;
10801;SDS011;5453;50.852;7.102;2023-04-24T02:48:31;3.20;;;2.00;;
10801;SDS011;5453;50.852;7.102;2023-04-24T02:51:04;3.70;;;2.15;;
10801;SDS011;5453;50.852;7.102;2023-04-24T02:53:36;3.55;;;2.05;;
10801;SDS011;5453;50.852;7.102;2023-04-24T02:56:10;3.50;;;2.17;;
10801;SDS011;5453;50.852;7.102;2023-04-24T02:58:43;3.80;;;2.38;;
10801;SDS011;5453;50.852;7.102;2023-04-24T03:01:15;2.70;;;1.83;;
10801;SDS011;5453;50.852;7.102;2023-04-24T03:03:48;2.63;;;1.92;;
10801;SDS011;5453;50.852;7.102;2023-04-24T03:06:20;3.75;;;2.13;;
10801;SDS011;5453;50.852;7.102;2023-04-24T03:08:52;4.15;;;2.30;;
10801;SDS011;5453;50.852;7.102;2023-04-24T03:11:26;3.28;;;2.20;;
10801;SDS011;5453;50.852;7.102;2023-04-24T03:13:58;3.42;;;2.10;;
10801;SDS011;5453;50.852;7.102;2023-04-24T03:16:30;3.60;;;2.10;;
10801;SDS011;5453;50.852;7.102;2023-04-24T03:19:03;4.70;;;2.40;;
10801;SDS011;5453;50.852;7.102;2023-04-24T03:21:38;3.40;;;2.38;;
10801;SDS011;5453;50.852;7.102;2023-04-24T03:24:11;3.92;;;2.47;;
10801;SDS011;5453;50.852;7.102;2023-04-24T03:26:45;3.88;;;2.58;;
10801;SDS011;5453;50.852;7.102;2023-04-24T03:29:33;4.63;;;2.75;;
10801;SDS011;5453;50.852;7.102;2023-04-24T03:32:06;3.40;;;2.40;;
10801;SDS011;5453;50.852;7.102;2023-04-24T03:34:39;5.22;;;2.35;;
10801;SDS011;5453;50.852;7.102;2023-04-24T03:37:14;3.33;;;2.17;;
10801;SDS011;5453;50.852;7.102;2023-04-24T03:39:52;3.55;;;2.40;;
10801;SDS011;5453;50.852;7.102;2023-04-24T03:42:29;3.80;;;2.67;;
10801;SDS011;5453;50.852;7.102;2023-04-24T03:45:03;3.40;;;2.30;;
10801;SDS011;5453;50.852;7.102;2023-04-24T03:47:39;3.78;;;2.63;;
10801;SDS011;5453;50.852;7.102;2023-04-24T03:50:11;4.32;;;2.65;;
10801;SDS011;5453;50.852;7.102;2023-04-24T03:52:45;3.53;;;2.50;;
10801;SDS011;5453;50.852;7.102;2023-04-24T03:55:27;4.32;;;2.25;;
10801;SDS011;5453;50.852;7.102;2023-04-24T03:58:01;5.57;;;2.13;;
10801;SDS011;5453;50.852;7.102;2023-04-24T04:00:34;4.43;;;2.30;;
10801;SDS011;5453;50.852;7.102;2023-04-24T04:03:33;3.80;;;2.30;;
10801;SDS011;5453;50.852;7.102;2023-04-24T04:06:06;4.28;;;2.40;;
10801;SDS011;5453;50.852;7.102;2023-04-24T04:08:38;5.55;;;2.85;;
10801;SDS011;5453;50.852;7.102;2023-04-24T04:11:10;4.13;;;2.70;;
10801;SDS011;5453;50.852;7.102;2023-04-24T04:13:44;3.55;;;2.47;;
10801;SDS011;5453;50.852;7.102;2023-04-24T04:16:18;5.68;;;2.80;;
10801;SDS011;5453;50.852;7.102;2023-04-24T04:18:53;4.20;;;2.30;;
10801;SDS011;5453;50.852;7.102;2023-04-24T04:21:25;3.45;;;2.17;;
10801;SDS011;5453;50.852;7.102;2023-04-24T04:24:06;4.35;;;2.55;;
10801;SDS011;5453;50.852;7.102;2023-04-24T04:26:43;3.47;;;2.47;;
10801;SDS011;5453;50.852;7.102;2023-04-24T04:29:23;4.78;;;2.78;;
10801;SDS011;5453;50.852;7.102;2023-04-24T04:31:56;3.80;;;2.22;;
10801;SDS011;5453;50.852;7.102;2023-04-24T04:34:29;4.75;;;2.40;;
10801;SDS011;5453;50.852;7.102;2023-04-24T04:37:01;6.78;;;2.80;;
10801;SDS011;5453;50.852;7.102;2023-04-24T04:39:56;5.00;;;2.35;;
10801;SDS011;5453;50.852;7.102;2023-04-24T04:42:30;5.35;;;2.90;;
10801;SDS011;5453;50.852;7.102;2023-04-24T04:45:06;4.68;;;2.80;;
10801;SDS011;5453;50.852;7.102;2023-04-24T04:47:52;7.18;;;2.72;;
10801;SDS011;5453;50.852;7.102;2023-04-24T04:50:25;4.97;;;2.72;;
10801;SDS011;5453;50.852;7.102;2023-04-24T04:53:05;4.30;;;2.55;;
10801;SDS011;5453;50.852;7.102;2023-04-24T04:55:41;4.07;;;2.60;;
10801;SDS011;5453;50.852;7.102;2023-04-24T04:58:15;3.22;;;2.30;;
10801;SDS011;5453;50.852;7.102;2023-04-24T05:00:50;5.43;;;2.72;;
10801;SDS011;5453;50.852;7.102;2023-04-24T05:03:30;5.43;;;2.53;;
10801;SDS011;5453;50.852;7.102;2023-04-24T05:06:13;5.18;;;2.60;;
10801;SDS011;5453;50.852;7.102;2023-04-24T05:08:47;5.35;;;2.83;;
10801;SDS011;5453;50.852;7.102;2023-04-24T05:11:40;5.47;;;2.97;;
10801;SDS011;5453;50.852;7.102;2023-04-24T05:14:12;5.45;;;3.35;;
10801;SDS011;5453;50.852;7.102;2023-04-24T05:16:47;4.07;;;2.40;;
10801;SDS011;5453;50.852;7.102;2023-04-24T05:19:22;3.75;;;2.47;;
10801;SDS011;5453;50.852;7.102;2023-04-24T05:21:54;4.82;;;2.20;;
10801;SDS011;5453;50.852;7.102;2023-04-24T05:24:27;4.90;;;2.20;;
10801;SDS011;5453;50.852;7.102;2023-04-24T05:27:04;4.88;;;2.40;;
10801;SDS011;5453;50.852;7.102;2023-04-24T05:29:42;4.95;;;2.80;;
10801;SDS011;5453;50.852;7.102;2023-04-24T05:32:15;5.72;;;2.88;;
10801;SDS011;5453;50.852;7.102;2023-04-24T05:34:48;5.43;;;2.63;;
10801;SDS011;5453;50.852;7.102;2023-04-24T05:37:20;4.50;;;2.67;;
10801;SDS011;5453;50.852;7.102;2023-04-24T05:39:52;4.00;;;2.78;;
10801;SDS011;5453;50.852;7.102;2023-04-24T05:42:25;5.63;;;3.10;;
10801;SDS011;5453;50.852;7.102;2023-04-24T05:44:57;5.90;;;2.90;;
10801;SDS011;5453;50.852;7.102;2023-04-24T05:47:31;4.43;;;2.72;;
10801;SDS011;5453;50.852;7.102;2023-04-24T05:50:04;4.28;;;2.42;;
10801;SDS011;5453;50.852;7.102;2023-04-24T05:52:39;5.35;;;3.03;;
10801;SDS011;5453;50.852;7.102;2023-04-24T05:55:24;3.80;;;2.50;;
10801;SDS011;5453;50.852;7.102;2023-04-24T05:57:57;4.13;;;2.15;;
10801;SDS011;5453;50.852;7.102;2023-04-24T06:00:30;3.92;;;2.50;;
10801;SDS011;5453;50.852;7.102;2023-04-24T06:03:10;4.53;;;2.80;;
10801;SDS011;5453;50.852;7.102;2023-04-24T06:05:42;4.60;;;2.80;;
10801;SDS011;5453;50.852;7.102;2023-04-24T06:08:15;6.30;;;3.00;;
10801;SDS011;5453;50.852;7.102;2023-04-24T06:10:48;4.68;;;2.72;;
10801;SDS011;5453;50.852;7.102;2023-04-24T06:13:22;6.10;;;3.05;;
10801;SDS011;5453;50.852;7.102;2023-04-24T06:16:13;4.93;;;2.67;;
10801;SDS011;5453;50.852;7.102;2023-04-24T06:18:52;4.25;;;3.00;;
10801;SDS011;5453;50.852;7.102;2023-04-24T06:21:25;5.95;;;3.25;;
10801;SDS011;5453;50.852;7.102;2023-04-24T06:23:57;3.80;;;2.58;;
10801;SDS011;5453;50.852;7.102;2023-04-24T06:26:30;6.63;;;2.60;;
10801;SDS011;5453;50.852;7.102;2023-04-24T06:29:02;4.40;;;2.83;;
10801;SDS011;5453;50.852;7.102;2023-04-24T06:31:35;4.20;;;2.55;;
10801;SDS011;5453;50.852;7.102;2023-04-24T06:34:09;4.75;;;3.10;;
10801;SDS011;5453;50.852;7.102;2023-04-24T06:36:41;4.80;;;2.70;;
10801;SDS011;5453;50.852;7.102;2023-04-24T06:39:13;5.75;;;2.92;;
10801;SDS011;5453;50.852;7.102;2023-04-24T06:41:45;6.40;;;3.25;;
10801;SDS011;5453;50.852;7.102;2023-04-24T06:44:23;4.15;;;2.83;;
10801;SDS011;5453;50.852;7.102;2023-04-24T06:46:55;4.68;;;3.03;;
10801;SDS011;5453;50.852;7.102;2023-04-24T06:49:29;4.80;;;2.88;;
10801;SDS011;5453;50.852;7.102;2023-04-24T06:52:01;5.05;;;2.90;;
10801;SDS011;5453;50.852;7.102;2023-04-24T06:54:33;3.78;;;2.40;;
10801;SDS011;5453;50.852;7.102;2023-04-24T06:57:05;2.70;;;1.80;;
10801;SDS011;5453;50.852;7.102;2023-04-24T06:59:37;3.03;;;2.10;;
10801;SDS011;5453;50.852;7.102;2023-04-24T07:02:09;3.42;;;2.10;;
10801;SDS011;5453;50.852;7.102;2023-04-24T07:04:42;3.15;;;2.20;;
10801;SDS011;5453;50.852;7.102;2023-04-24T07:07:15;2.00;;;1.35;;
10801;SDS011;5453;50.852;7.102;2023-04-24T07:09:47;2.30;;;1.60;;
10801;SDS011;5453;50.852;7.102;2023-04-24T07:12:20;3.05;;;2.05;;
10801;SDS011;5453;50.852;7.102;2023-04-24T07:14:52;2.00;;;1.58;;
10801;SDS011;5453;50.852;7.102;2023-04-24T07:17:24;3.65;;;1.70;;
10801;SDS011;5453;50.852;7.102;2023-04-24T07:19:58;2.33;;;1.52;;
10801;SDS011;5453;50.852;7.102;2023-04-24T07:22:30;1.88;;;1.52;;
10801;SDS011;5453;50.852;7.102;2023-04-24T07:25:02;1.83;;;1.27;;
10801;SDS011;5453;50.852;7.102;2023-04-24T07:27:35;2.30;;;1.50;;
10801;SDS011;5453;50.852;7.102;2023-04-24T07:30:07;2.08;;;1.48;;
10801;SDS011;5453;50.852;7.102;2023-04-24T07:32:40;2.38;;;1.60;;
10801;SDS011;5453;50.852;7.102;2023-04-24T07:35:14;2.13;;;1.50;;
10801;SDS011;5453;50.852;7.102;2023-04-24T07:37:46;2.40;;;1.20;;
10801;SDS011;5453;50.852;7.102;2023-04-24T07:40:18;1.58;;;1.30;;
10801;SDS011;5453;50.852;7.102;2023-04-24T07:42:51;1.58;;;1.40;;
10801;SDS011;5453;50.852;7.102;2023-04-24T07:45:23;2.50;;;1.30;;
10801;SDS011;5453;50.852;7.102;2023-04-24T07:47:56;2.15;;;1.27;;
10801;SDS011;5453;50.852;7.102;2023-04-24T07:50:30;1.25;;;1.00;;
10801;SDS011;5453;50.852;7.102;2023-04-24T07:53:02;1.23;;;1.13;;
10801;SDS011;5453;50.852;7.102;2023-04-24T07:55:34;0.95;;;0.80;;
10801;SDS011;5453;50.852;7.102;2023-04-24T07:58:06;1.10;;;1.00;;
10801;SDS011;5453;50.852;7.102;2023-04-24T08:00:38;1.15;;;1.05;;
10801;SDS011;5453;50.852;7.102;2023-04-24T08:03:10;0.88;;;0.88;;
10801;SDS011;5453;50.852;7.102;2023-04-24T08:05:44;1.10;;;1.00;;
10801;SDS011;5453;50.852;7.102;2023-04-24T08:08:16;2.00;;;1.10;;
10801;SDS011;5453;50.852;7.102;2023-04-24T08:10:50;1.27;;;1.00;;
10801;SDS011;5453;50.852;7.102;2023-04-24T08:13:22;2.58;;;1.20;;
10801;SDS011;5453;50.852;7.102;2023-04-24T08:15:54;2.78;;;1.45;;
10801;SDS011;5453;50.852;7.102;2023-04-24T08:18:27;1.52;;;1.30;;
10801;SDS011;5453;50.852;7.102;2023-04-24T08:21:03;1.30;;;1.20;;
10801;SDS011;5453;50.852;7.102;2023-04-24T08:23:35;2.10;;;1.33;;
10801;SDS011;5453;50.852;7.102;2023-04-24T08:26:07;2.85;;;1.58;;
10801;SDS011;5453;50.852;7.102;2023-04-24T08:28:40;1.50;;;1.20;;
10801;SDS011;5453;50.852;7.102;2023-04-24T08:31:13;1.30;;;1.20;;
10801;SDS011;5453;50.852;7.102;2023-04-24T08:33:45;2.05;;;1.05;;
10801;SDS011;5453;50.852;7.102;2023-04-24T08:36:19;1.58;;;1.35;;
10801;SDS011;5453;50.852;7.102;2023-04-24T08:38:51;1.60;;;1.20;;
10801;SDS011;5453;50.852;7.102;2023-04-24T08:41:23;2.13;;;1.33;;
10801;SDS011;5453;50.852;7.102;2023-04-24T08:43:56;1.58;;;1.27;;
10801;SDS011;5453;50.852;7.102;2023-04-24T08:46:29;2.70;;;1.23;;
10801;SDS011;5453;50.852;7.102;2023-04-24T08:49:02;1.90;;;1.40;;
10801;SDS011;5453;50.852;7.102;2023-04-24T08:51:37;2.85;;;1.50;;
10801;SDS011;5453;50.852;7.102;2023-04-24T08:54:11;2.88;;;1.38;;
10801;SDS011;5453;50.852;7.102;2023-04-24T08:56:44;2.38;;;1.40;;
10801;SDS011;5453;50.852;7.102;2023-04-24T09:01:52;2.65;;;1.20;;
10801;SDS011;5453;50.852;7.102;2023-04-24T09:04:26;1.73;;;1.23;;
10801;SDS011;5453;50.852;7.102;2023-04-24T09:07:01;3.50;;;1.80;;
10801;SDS011;5453;50.852;7.102;2023-04-24T09:09:35;2.88;;;1.60;;
10801;SDS011;5453;50.852;7.102;2023-04-24T09:12:11;2.33;;;1.58;;
10801;SDS011;5453;50.852;7.102;2023-04-24T09:14:44;2.63;;;1.90;;
10801;SDS011;5453;50.852;7.102;2023-04-24T09:17:16;2.42;;;1.70;;
10801;SDS011;5453;50.852;7.102;2023-04-24T09:19:48;3.90;;;2.35;;
10801;SDS011;5453;50.852;7.102;2023-04-24T09:22:22;3.80;;;2.03;;
10801;SDS011;5453;50.852;7.102;2023-04-24T09:24:59;3.13;;;1.98;;
10801;SDS011;5453;50.852;7.102;2023-04-24T09:27:35;3.53;;;2.10;;
10801;SDS011;5453;50.852;7.102;2023-04-24T09:30:08;3.10;;;1.83;;
10801;SDS011;5453;50.852;7.102;2023-04-24T09:32:41;5.93;;;2.50;;
10801;SDS011;5453;50.852;7.102;2023-04-24T09:35:13;4.18;;;2.30;;
10801;SDS011;5453;50.852;7.102;2023-04-24T09:37:48;5.82;;;2.20;;
10801;SDS011;5453;50.852;7.102;2023-04-24T09:40:21;3.63;;;2.10;;
10801;SDS011;5453;50.852;7.102;2023-04-24T09:42:55;3.47;;;2.28;;
10801;SDS011;5453;50.852;7.102;2023-04-24T09:45:35;5.18;;;2.42;;
10801;SDS011;5453;50.852;7.102;2023-04-24T09:48:09;5.20;;;2.42;;
10801;SDS011;5453;50.852;7.102;2023-04-24T09:50:45;4.28;;;2.60;;
10801;SDS011;5453;50.852;7.102;2023-04-24T09:53:19;3.72;;;2.22;;
10801;SDS011;5453;50.852;7.102;2023-04-24T09:55:56;5.20;;;2.75;;
10801;SDS011;5453;50.852;7.102;2023-04-24T09:58:34;6.70;;;2.30;;
10801;SDS011;5453;50.852;7.102;2023-04-24T10:01:06;4.28;;;2.42;;
10801;SDS011;5453;50.852;7.102;2023-04-24T10:03:39;4.18;;;2.65;;
10801;SDS011;5453;50.852;7.102;2023-04-24T10:06:14;6.13;;;3.00;;
10801;SDS011;5453;50.852;7.102;2023-04-24T10:08:48;5.63;;;3.30;;
10801;SDS011;5453;50.852;7.102;2023-04-24T10:11:21;5.95;;;3.38;;
10801;SDS011;5453;50.852;7.102;2023-04-24T10:13:53;5.90;;;3.90;;
10801;SDS011;5453;50.852;7.102;2023-04-24T10:16:27;5.15;;;3.15;;
10801;SDS011;5453;50.852;7.102;2023-04-24T10:18:59;7.10;;;3.20;;
10801;SDS011;5453;50.852;7.102;2023-04-24T10:21:32;4.90;;;2.55;;
10801;SDS011;5453;50.852;7.102;2023-04-24T10:24:06;6.75;;;3.55;;
10801;SDS011;5453;50.852;7.102;2023-04-24T10:26:40;4.93;;;3.08;;
10801;SDS011;5453;50.852;7.102;2023-04-24T10:29:13;4.40;;;2.28;;
10801;SDS011;5453;50.852;7.102;2023-04-24T10:31:47;4.20;;;2.60;;
10801;SDS011;5453;50.852;7.102;2023-04-24T10:34:19;5.53;;;2.53;;
10801;SDS011;5453;50.852;7.102;2023-04-24T10:36:53;4.43;;;2.58;;
10801;SDS011;5453;50.852;7.102;2023-04-24T10:39:28;5.43;;;2.75;;
10801;SDS011;5453;50.852;7.102;2023-04-24T10:42:12;7.60;;;2.80;;
10801;SDS011;5453;50.852;7.102;2023-04-24T10:44:47;6.13;;;3.22;;
10801;SDS011;5453;50.852;7.102;2023-04-24T10:47:19;3.65;;;2.40;;
10801;SDS011;5453;50.852;7.102;2023-04-24T10:49:51;3.88;;;2.30;;
10801;SDS011;5453;50.852;7.102;2023-04-24T10:52:26;4.63;;;2.72;;
10801;SDS011;5453;50.852;7.102;2023-04-24T10:55:17;5.40;;;3.00;;
10801;SDS011;5453;50.852;7.102;2023-04-24T10:58:16;6.18;;;3.10;;
10801;SDS011;5453;50.852;7.102;2023-04-24T11:00:56;4.22;;;2.60;;
10801;SDS011;5453;50.852;7.102;2023-04-24T11:03:30;5.22;;;2.85;;
10801;SDS011;5453;50.852;7.102;2023-04-24T11:06:05;3.45;;;2.70;;
10801;SDS011;5453;50.852;7.102;2023-04-24T11:08:39;8.60;;;3.50;;
10801;SDS011;5453;50.852;7.102;2023-04-24T11:11:17;8.20;;;3.60;;
10801;SDS011;5453;50.852;7.102;2023-04-24T11:14:01;7.60;;;3.03;;
10801;SDS011;5453;50.852;7.102;2023-04-24T11:16:43;6.82;;;2.63;;
10801;SDS011;5453;50.852;7.102;2023-04-24T11:19:20;6.88;;;3.05;;
10801;SDS011;5453;50.852;7.102;2023-04-24T11:21:55;5.78;;;3.10;;
10801;SDS011;5453;50.852;7.102;2023-04-24T11:24:32;8.20;;;3.15;;
10801;SDS011;5453;50.852;7.102;2023-04-24T11:27:20;7.68;;;3.10;;
10801;SDS011;5453;50.852;7.102;2023-04-24T11:29:58;8.02;;;3.17;;
10801;SDS011;5453;50.852;7.102;2023-04-24T11:32:34;5.57;;;3.10;;
10801;SDS011;5453;50.852;7.102;2023-04-24T11:35:13;7.68;;;3.20;;
10801;SDS011;5453;50.852;7.102;2023-04-24T11:37:48;8.43;;;3.33;;
10801;SDS011;5453;50.852;7.102;2023-04-24T11:40:22;6.43;;;3.03;;
10801;SDS011;5453;50.852;7.102;2023-04-24T11:42:56;7.03;;;3.22;;
10801;SDS011;5453;50.852;7.102;2023-04-24T11:45:31;6.35;;;3.53;;
10801;SDS011;5453;50.852;7.102;2023-04-24T11:48:03;7.22;;;3.83;;
10801;SDS011;5453;50.852;7.102;2023-04-24T11:50:36;8.00;;;3.63;;
10801;SDS011;5453;50.852;7.102;2023-04-24T11:53:08;7.00;;;3.30;;
10801;SDS011;5453;50.852;7.102;2023-04-24T11:55:40;8.18;;;4.07;;
10801;SDS011;5453;50.852;7.102;2023-04-24T11:58:14;4.75;;;3.20;;
10801;SDS011;5453;50.852;7.102;2023-04-24T12:00:46;5.75;;;3.05;;
10801;SDS011;5453;50.852;7.102;2023-04-24T12:03:28;4.35;;;2.70;;
10801;SDS011;5453;50.852;7.102;2023-04-24T12:06:06;5.75;;;3.38;;
10801;SDS011;5453;50.852;7.102;2023-04-24T12:08:39;6.00;;;3.10;;
10801;SDS011;5453;50.852;7.102;2023-04-24T12:11:11;8.25;;;3.47;;
10801;SDS011;5453;50.852;7.102;2023-04-24T12:13:49;6.38;;;2.90;;
10801;SDS011;5453;50.852;7.102;2023-04-24T12:16:21;8.50;;;3.72;;
10801;SDS011;5453;50.852;7.102;2023-04-24T12:18:54;5.38;;;3.05;;
10801;SDS011;5453;50.852;7.102;2023-04-24T12:21:26;7.75;;;3.40;;
10801;SDS011;5453;50.852;7.102;2023-04-24T12:24:00;5.75;;;3.42;;
10801;SDS011;5453;50.852;7.102;2023-04-24T12:26:32;7.13;;;3.40;;
10801;SDS011;5453;50.852;7.102;2023-04-24T12:29:06;6.57;;;3.00;;
10801;SDS011;5453;50.852;7.102;2023-04-24T12:31:38;8.15;;;3.63;;
10801;SDS011;5453;50.852;7.102;2023-04-24T12:34:17;7.07;;;3.33;;
10801;SDS011;5453;50.852;7.102;2023-04-24T12:36:50;9.45;;;3.72;;
10801;SDS011;5453;50.852;7.102;2023-04-24T12:39:22;8.23;;;3.75;;
10801;SDS011;5453;50.852;7.102;2023-04-24T12:41:56;8.35;;;4.18;;
10801;SDS011;5453;50.852;7.102;2023-04-24T12:44:31;7.90;;;4.10;;
10801;SDS011;5453;50.852;7.102;2023-04-24T12:49:37;9.27;;;3.45;;
10801;SDS011;5453;50.852;7.102;2023-04-24T12:52:09;7.18;;;3.90;;
10801;SDS011;5453;50.852;7.102;2023-04-24T12:54:41;5.57;;;3.20;;
10801;SDS011;5453;50.852;7.102;2023-04-24T12:57:14;6.40;;;3.50;;
10801;SDS011;5453;50.852;7.102;2023-04-24T12:59:47;5.60;;;3.20;;
10801;SDS011;5453;50.852;7.102;2023-04-24T13:02:19;10.75;;;4.53;;
10801;SDS011;5453;50.852;7.102;2023-04-24T13:04:52;8.63;;;3.90;;
10801;SDS011;5453;50.852;7.102;2023-04-24T13:07:24;9.02;;;5.15;;
10801;SDS011;5453;50.852;7.102;2023-04-24T13:09:57;8.95;;;4.30;;
10801;SDS011;5453;50.852;7.102;2023-04-24T13:12:30;14.48;;;4.45;;
10801;SDS011;5453;50.852;7.102;2023-04-24T13:15:03;9.63;;;3.75;;
10801;SDS011;5453;50.852;7.102;2023-04-24T13:17:37;7.72;;;3.85;;
10801;SDS011;5453;50.852;7.102;2023-04-24T13:20:09;8.20;;;3.92;;
10801;SDS011;5453;50.852;7.102;2023-04-24T13:22:41;8.20;;;3.70;;
10801;SDS011;5453;50.852;7.102;2023-04-24T13:25:14;9.20;;;3.90;;
10801;SDS011;5453;50.852;7.102;2023-04-24T13:27:46;12.70;;;4.10;;
10801;SDS011;5453;50.852;7.102;2023-04-24T13:30:20;8.45;;;4.47;;
10801;SDS011;5453;50.852;7.102;2023-04-24T13:32:52;8.18;;;3.72;;
10801;SDS011;5453;50.852;7.102;2023-04-24T13:35:25;11.75;;;3.78;;
10801;SDS011;5453;50.852;7.102;2023-04-24T13:37:57;8.45;;;3.63;;
10801;SDS011;5453;50.852;7.102;2023-04-24T13:40:32;6.68;;;3.38;;
10801;SDS011;5453;50.852;7.102;2023-04-24T13:43:04;10.52;;;3.72;;
10801;SDS011;5453;50.852;7.102;2023-04-24T13:45:38;5.88;;;3.33;;
10801;SDS011;5453;50.852;7.102;2023-04-24T13:48:10;8.63;;;3.92;;
10801;SDS011;5453;50.852;7.102;2023-04-24T13:50:45;8.75;;;3.78;;
10801;SDS011;5453;50.852;7.102;2023-04-24T13:53:18;7.90;;;3.85;;
10801;SDS011;5453;50.852;7.102;2023-04-24T13:55:50;11.25;;;3.80;;
10801;SDS011;5453;50.852;7.102;2023-04-24T13:58:22;9.60;;;4.38;;
10801;SDS011;5453;50.852;7.102;2023-04-24T14:00:56;8.70;;;4.00;;
10801;SDS011;5453;50.852;7.102;2023-04-24T14:03:28;6.47;;;3.50;;
10801;SDS011;5453;50.852;7.102;2023-04-24T14:06:00;11.18;;;4.03;;
10801;SDS011;5453;50.852;7.102;2023-04-24T14:08:32;6.80;;;3.45;;
10801;SDS011;5453;50.852;7.102;2023-04-24T14:11:04;6.43;;;3.10;;
10801;SDS011;5453;50.852;7.102;2023-04-24T14:13:37;7.28;;;3.55;;
10801;SDS011;5453;50.852;7.102;2023-04-24T14:16:11;9.20;;;4.13;;
10801;SDS011;5453;50.852;7.102;2023-04-24T14:18:44;8.23;;;3.30;;
10801;SDS011;5453;50.852;7.102;2023-04-24T14:21:16;6.05;;;3.42;;
10801;SDS011;5453;50.852;7.102;2023-04-24T14:23:48;10.70;;;4.00;;
10801;SDS011;5453;50.852;7.102;2023-04-24T14:26:21;11.48;;;4.38;;
10801;SDS011;5453;50.852;7.102;2023-04-24T14:28:54;9.05;;;3.78;;
10801;SDS011;5453;50.852;7.102;2023-04-24T14:31:28;10.75;;;4.00;;
10801;SDS011;5453;50.852;7.102;2023-04-24T14:34:00;7.38;;;4.05;;
10801;SDS011;5453;50.852;7.102;2023-04-24T14:36:32;10.27;;;3.53;;
10801;SDS011;5453;50.852;7.102;2023-04-24T14:39:05;7.82;;;3.85;;
10801;SDS011;5453;50.852;7.102;2023-04-24T14:41:37;9.77;;;3.80;;
10801;SDS011;5453;50.852;7.102;2023-04-24T14:44:10;5.95;;;3.33;;
10801;SDS011;5453;50.852;7.102;2023-04-24T14:46:43;6.80;;;3.42;;
10801;SDS011;5453;50.852;7.102;2023-04-24T14:49:16;5.85;;;3.30;;
10801;SDS011;5453;50.852;7.102;2023-04-24T14:51:48;5.38;;;3.40;;
10801;SDS011;5453;50.852;7.102;2023-04-24T14:54:20;7.53;;;4.72;;
10801;SDS011;5453;50.852;7.102;2023-04-24T14:56:53;6.65;;;3.10;;
10801;SDS011;5453;50.852;7.102;2023-04-24T14:59:27;5.63;;;3.30;;
10801;SDS011;5453;50.852;7.102;2023-04-24T15:02:00;7.80;;;3.28;;
10801;SDS011;5453;50.852;7.102;2023-04-24T15:04:32;5.38;;;2.78;;
10801;SDS011;5453;50.852;7.102;2023-04-24T15:07:05;7.65;;;3.45;;
10801;SDS011;5453;50.852;7.102;2023-04-24T15:09:37;7.47;;;3.75;;
10801;SDS011;5453;50.852;7.102;2023-04-24T15:12:09;4.78;;;3.08;;
10801;SDS011;5453;50.852;7.102;2023-04-24T15:14:42;6.72;;;2.65;;
10801;SDS011;5453;50.852;7.102;2023-04-24T15:17:16;5.78;;;2.60;;
10801;SDS011;5453;50.852;7.102;2023-04-24T15:19:48;6.30;;;2.63;;
10801;SDS011;5453;50.852;7.102;2023-04-24T15:22:20;6.38;;;2.72;;
10801;SDS011;5453;50.852;7.102;2023-04-24T15:24:52;5.28;;;3.05;;
10801;SDS011;5453;50.852;7.102;2023-04-24T15:27:24;4.88;;;2.83;;
10801;SDS011;5453;50.852;7.102;2023-04-24T15:29:56;6.00;;;3.20;;
10801;SDS011;5453;50.852;7.102;2023-04-24T15:32:30;6.30;;;2.72;;
10801;SDS011;5453;50.852;7.102;2023-04-24T15:35:03;7.90;;;4.05;;
10801;SDS011;5453;50.852;7.102;2023-04-24T15:37:36;5.85;;;3.10;;
10801;SDS011;5453;50.852;7.102;2023-04-24T15:40:09;6.78;;;3.17;;
10801;SDS011;5453;50.852;7.102;2023-04-24T15:42:45;6.00;;;3.35;;
10801;SDS011;5453;50.852;7.102;2023-04-24T15:45:17;5.68;;;3.25;;